sensor_id;sensor_type;location;lat;lon;timestamp;P1;durP1;ratioP1;P2;durP2;ratioP2
35644;SDS011;21764;52.042;6.830;2022-07-18T00:03:29;11.32;;;5.20;;
35644;SDS011;21764;52.042;6.830;2022-07-18T00:08:29;13.18;;;4.97;;
35644;SDS011;21764;52.042;6.830;2022-07-18T00:13:30;11.30;;;4.80;;
35644;SDS011;21764;52.042;6.830;2022-07-18T00:18:31;11.07;;;5.40;;
35644;SDS011;21764;52.042;6.830;2022-07-18T00:23:31;7.53;;;4.90;;
35644;SDS011;21764;52.042;6.830;2022-07-18T00:28:32;18.30;;;5.30;;
35644;SDS011;21764;52.042;6.830;2022-07-18T00:33:33;7.63;;;4.68;;
35644;SDS011;21764;52.042;6.830;2022-07-18T00:38:33;11.73;;;5.18;;
35644;SDS011;21764;52.042;6.830;2022-07-18T00:43:34;7.78;;;4.65;;
35644;SDS011;21764;52.042;6.830;2022-07-18T00:48:35;10.80;;;4.82;;
35644;SDS011;21764;52.042;6.830;2022-07-18T00:53:35;13.57;;;5.20;;
35644;SDS011;21764;52.042;6.830;2022-07-18T00:58:37;9.15;;;4.10;;
35644;SDS011;21764;52.042;6.830;2022-07-18T01:03:38;9.60;;;4.10;;
35644;SDS011;21764;52.042;6.830;2022-07-18T01:08:39;6.32;;;4.00;;
35644;SDS011;21764;52.042;6.830;2022-07-18T01:13:43;14.77;;;4.33;;
35644;SDS011;21764;52.042;6.830;2022-07-18T01:18:45;8.70;;;4.43;;
35644;SDS011;21764;52.042;6.830;2022-07-18T01:23:46;8.02;;;4.82;;
35644;SDS011;21764;52.042;6.830;2022-07-18T01:28:47;8.52;;;4.50;;
35644;SDS011;21764;52.042;6.830;2022-07-18T01:33:48;8.40;;;4.40;;
35644;SDS011;21764;52.042;6.830;2022-07-18T01:38:48;10.93;;;4.68;;
35644;SDS011;21764;52.042;6.830;2022-07-18T01:43:49;9.57;;;4.68;;
35644;SDS011;21764;52.042;6.830;2022-07-18T01:48:50;8.10;;;4.28;;
35644;SDS011;21764;52.042;6.830;2022-07-18T01:53:55;9.15;;;4.55;;
35644;SDS011;21764;52.042;6.830;2022-07-18T01:59:01;9.52;;;4.15;;
35644;SDS011;21764;52.042;6.830;2022-07-18T02:04:02;9.57;;;4.30;;
35644;SDS011;21764;52.042;6.830;2022-07-18T02:09:03;9.43;;;3.92;;
35644;SDS011;21764;52.042;6.830;2022-07-18T02:14:05;8.15;;;4.18;;
35644;SDS011;21764;52.042;6.830;2022-07-18T02:19:06;10.60;;;4.90;;
35644;SDS011;21764;52.042;6.830;2022-07-18T02:24:06;9.80;;;4.43;;
35644;SDS011;21764;52.042;6.830;2022-07-18T02:29:07;12.77;;;4.40;;
35644;SDS011;21764;52.042;6.830;2022-07-18T02:34:08;7.22;;;4.07;;
35644;SDS011;21764;52.042;6.830;2022-07-18T02:39:10;10.93;;;4.40;;
35644;SDS011;21764;52.042;6.830;2022-07-18T02:44:11;13.05;;;4.85;;
35644;SDS011;21764;52.042;6.830;2022-07-18T02:49:11;8.63;;;4.40;;
35644;SDS011;21764;52.042;6.830;2022-07-18T02:54:27;8.85;;;4.30;;
35644;SDS011;21764;52.042;6.830;2022-07-18T02:59:29;13.07;;;4.70;;
35644;SDS011;21764;52.042;6.830;2022-07-18T03:04:29;13.27;;;4.80;;
35644;SDS011;21764;52.042;6.830;2022-07-18T03:09:30;12.63;;;4.40;;
35644;SDS011;21764;52.042;6.830;2022-07-18T03:14:31;13.55;;;5.95;;
35644;SDS011;21764;52.042;6.830;2022-07-18T03:19:32;6.40;;;3.88;;
35644;SDS011;21764;52.042;6.830;2022-07-18T03:24:33;9.80;;;4.90;;
35644;SDS011;21764;52.042;6.830;2022-07-18T03:29:33;6.90;;;4.68;;
35644;SDS011;21764;52.042;6.830;2022-07-18T03:34:34;7.45;;;4.28;;
35644;SDS011;21764;52.042;6.830;2022-07-18T03:39:35;8.63;;;4.57;;
35644;SDS011;21764;52.042;6.830;2022-07-18T03:44:35;7.57;;;4.10;;
35644;SDS011;21764;52.042;6.830;2022-07-18T03:49:36;7.28;;;4.45;;
35644;SDS011;21764;52.042;6.830;2022-07-18T03:54:36;12.25;;;4.60;;
35644;SDS011;21764;52.042;6.830;2022-07-18T03:59:37;8.07;;;4.20;;
35644;SDS011;21764;52.042;6.830;2022-07-18T04:04:38;6.30;;;3.92;;
35644;SDS011;21764;52.042;6.830;2022-07-18T04:09:38;8.73;;;4.15;;
35644;SDS011;21764;52.042;6.830;2022-07-18T04:14:39;9.73;;;4.28;;
35644;SDS011;21764;52.042;6.830;2022-07-18T04:19:40;10.18;;;4.20;;
35644;SDS011;21764;52.042;6.830;2022-07-18T04:24:40;6.70;;;3.53;;
35644;SDS011;21764;52.042;6.830;2022-07-18T04:29:41;7.40;;;3.70;;
35644;SDS011;21764;52.042;6.830;2022-07-18T04:34:42;8.73;;;3.80;;
35644;SDS011;21764;52.042;6.830;2022-07-18T04:39:43;6.57;;;2.97;;
35644;SDS011;21764;52.042;6.830;2022-07-18T04:44:43;9.40;;;3.08;;
35644;SDS011;21764;52.042;6.830;2022-07-18T04:49:44;10.18;;;3.20;;
35644;SDS011;21764;52.042;6.830;2022-07-18T04:54:45;7.60;;;3.63;;
35644;SDS011;21764;52.042;6.830;2022-07-18T04:59:46;9.43;;;3.35;;
35644;SDS011;21764;52.042;6.830;2022-07-18T05:04:46;10.25;;;3.78;;
35644;SDS011;21764;52.042;6.830;2022-07-18T05:09:47;10.40;;;3.03;;
35644;SDS011;21764;52.042;6.830;2022-07-18T05:14:48;9.10;;;3.03;;
35644;SDS011;21764;52.042;6.830;2022-07-18T05:19:49;6.00;;;2.55;;
35644;SDS011;21764;52.042;6.830;2022-07-18T05:24:49;6.20;;;2.55;;
35644;SDS011;21764;52.042;6.830;2022-07-18T05:29:50;6.30;;;2.88;;
35644;SDS011;21764;52.042;6.830;2022-07-18T05:34:51;6.32;;;2.50;;
35644;SDS011;21764;52.042;6.830;2022-07-18T05:39:52;7.80;;;2.55;;
35644;SDS011;21764;52.042;6.830;2022-07-18T05:44:52;6.60;;;2.60;;
35644;SDS011;21764;52.042;6.830;2022-07-18T05:49:53;13.60;;;3.00;;
35644;SDS011;21764;52.042;6.830;2022-07-18T05:54:54;12.23;;;2.55;;
35644;SDS011;21764;52.042;6.830;2022-07-18T05:59:54;11.38;;;2.60;;
35644;SDS011;21764;52.042;6.830;2022-07-18T06:04:55;7.00;;;2.35;;
35644;SDS011;21764;52.042;6.830;2022-07-18T06:09:56;5.55;;;2.30;;
35644;SDS011;21764;52.042;6.830;2022-07-18T06:14:57;7.82;;;2.13;;
35644;SDS011;21764;52.042;6.830;2022-07-18T06:19:58;8.82;;;2.22;;
35644;SDS011;21764;52.042;6.830;2022-07-18T06:24:59;11.43;;;2.65;;
35644;SDS011;21764;52.042;6.830;2022-07-18T06:29:59;11.18;;;2.67;;
35644;SDS011;21764;52.042;6.830;2022-07-18T06:35:00;11.85;;;2.42;;
35644;SDS011;21764;52.042;6.830;2022-07-18T06:40:01;8.38;;;2.47;;
35644;SDS011;21764;52.042;6.830;2022-07-18T06:45:02;8.50;;;2.10;;
35644;SDS011;21764;52.042;6.830;2022-07-18T06:50:04;8.13;;;2.95;;
35644;SDS011;21764;52.042;6.830;2022-07-18T06:55:05;4.25;;;1.85;;
35644;SDS011;21764;52.042;6.830;2022-07-18T07:00:08;6.93;;;2.05;;
35644;SDS011;21764;52.042;6.830;2022-07-18T07:05:10;4.47;;;1.60;;
35644;SDS011;21764;52.042;6.830;2022-07-18T07:10:11;13.68;;;2.17;;
35644;SDS011;21764;52.042;6.830;2022-07-18T07:15:12;12.52;;;1.98;;
35644;SDS011;21764;52.042;6.830;2022-07-18T07:20:14;15.45;;;2.10;;
35644;SDS011;21764;52.042;6.830;2022-07-18T07:25:17;6.85;;;2.00;;
35644;SDS011;21764;52.042;6.830;2022-07-18T07:30:20;4.63;;;1.90;;
35644;SDS011;21764;52.042;6.830;2022-07-18T07:35:21;8.23;;;1.63;;
35644;SDS011;21764;52.042;6.830;2022-07-18T07:40:23;9.25;;;1.80;;
35644;SDS011;21764;52.042;6.830;2022-07-18T07:50:26;10.90;;;1.73;;
35644;SDS011;21764;52.042;6.830;2022-07-18T07:55:27;5.07;;;1.58;;
35644;SDS011;21764;52.042;6.830;2022-07-18T08:00:28;4.30;;;1.75;;
35644;SDS011;21764;52.042;6.830;2022-07-18T08:05:30;7.97;;;2.33;;
35644;SDS011;21764;52.042;6.830;2022-07-18T08:10:32;7.40;;;1.88;;
35644;SDS011;21764;52.042;6.830;2022-07-18T08:15:33;7.57;;;2.28;;
35644;SDS011;21764;52.042;6.830;2022-07-18T08:20:34;6.18;;;1.70;;
35644;SDS011;21764;52.042;6.830;2022-07-18T08:25:36;9.38;;;2.00;;
35644;SDS011;21764;52.042;6.830;2022-07-18T08:30:40;6.93;;;1.70;;
35644;SDS011;21764;52.042;6.830;2022-07-18T08:35:42;5.47;;;1.52;;
35644;SDS011;21764;52.042;6.830;2022-07-18T08:40:42;11.80;;;2.27;;
35644;SDS011;21764;52.042;6.830;2022-07-18T08:45:48;10.57;;;2.00;;
35644;SDS011;21764;52.042;6.830;2022-07-18T08:50:49;4.70;;;1.50;;
35644;SDS011;21764;52.042;6.830;2022-07-18T08:55:50;8.97;;;1.70;;
35644;SDS011;21764;52.042;6.830;2022-07-18T09:00:51;7.72;;;1.80;;
35644;SDS011;21764;52.042;6.830;2022-07-18T09:11:12;17.90;;;1.90;;
35644;SDS011;21764;52.042;6.830;2022-07-18T09:16:13;5.40;;;2.10;;
35644;SDS011;21764;52.042;6.830;2022-07-18T09:26:39;9.00;;;2.10;;
35644;SDS011;21764;52.042;6.830;2022-07-18T09:31:49;5.75;;;1.60;;
35644;SDS011;21764;52.042;6.830;2022-07-18T09:36:53;5.90;;;2.25;;
35644;SDS011;21764;52.042;6.830;2022-07-18T09:42:18;10.20;;;2.20;;
35644;SDS011;21764;52.042;6.830;2022-07-18T09:47:18;5.03;;;2.08;;
35644;SDS011;21764;52.042;6.830;2022-07-18T09:52:19;5.13;;;1.88;;
35644;SDS011;21764;52.042;6.830;2022-07-18T09:57:23;5.35;;;2.00;;
35644;SDS011;21764;52.042;6.830;2022-07-18T10:02:25;4.45;;;2.22;;
35644;SDS011;21764;52.042;6.830;2022-07-18T10:07:26;5.07;;;2.57;;
35644;SDS011;21764;52.042;6.830;2022-07-18T10:12:28;8.90;;;3.30;;
35644;SDS011;21764;52.042;6.830;2022-07-18T10:17:30;8.43;;;2.40;;
35644;SDS011;21764;52.042;6.830;2022-07-18T10:22:35;8.88;;;2.78;;
35644;SDS011;21764;52.042;6.830;2022-07-18T10:27:48;9.02;;;2.83;;
35644;SDS011;21764;52.042;6.830;2022-07-18T10:32:49;10.88;;;2.47;;
35644;SDS011;21764;52.042;6.830;2022-07-18T10:37:50;8.37;;;4.80;;
35644;SDS011;21764;52.042;6.830;2022-07-18T10:59:00;5.43;;;2.30;;
35644;SDS011;21764;52.042;6.830;2022-07-18T11:04:37;9.48;;;2.20;;
35644;SDS011;21764;52.042;6.830;2022-07-18T11:09:40;11.88;;;3.03;;
35644;SDS011;21764;52.042;6.830;2022-07-18T11:25:28;7.35;;;2.63;;
35644;SDS011;21764;52.042;6.830;2022-07-18T11:30:30;5.18;;;2.30;;
35644;SDS011;21764;52.042;6.830;2022-07-18T11:35:30;6.72;;;2.40;;
35644;SDS011;21764;52.042;6.830;2022-07-18T11:40:31;7.10;;;2.53;;
35644;SDS011;21764;52.042;6.830;2022-07-18T11:45:32;5.63;;;2.47;;
35644;SDS011;21764;52.042;6.830;2022-07-18T11:50:35;8.35;;;2.17;;
35644;SDS011;21764;52.042;6.830;2022-07-18T11:55:37;11.90;;;2.45;;
35644;SDS011;21764;52.042;6.830;2022-07-18T12:00:38;5.25;;;2.20;;
35644;SDS011;21764;52.042;6.830;2022-07-18T12:05:41;7.07;;;2.45;;
35644;SDS011;21764;52.042;6.830;2022-07-18T12:10:42;6.03;;;2.10;;
35644;SDS011;21764;52.042;6.830;2022-07-18T12:15:42;5.82;;;2.28;;
35644;SDS011;21764;52.042;6.830;2022-07-18T12:20:43;9.40;;;2.17;;
35644;SDS011;21764;52.042;6.830;2022-07-18T12:25:45;5.32;;;2.25;;
35644;SDS011;21764;52.042;6.830;2022-07-18T12:30:46;7.63;;;2.08;;
35644;SDS011;21764;52.042;6.830;2022-07-18T12:35:53;2.85;;;1.90;;
35644;SDS011;21764;52.042;6.830;2022-07-18T12:40:57;3.65;;;1.88;;
35644;SDS011;21764;52.042;6.830;2022-07-18T12:46:01;8.02;;;1.85;;
35644;SDS011;21764;52.042;6.830;2022-07-18T12:51:09;7.75;;;2.50;;
35644;SDS011;21764;52.042;6.830;2022-07-18T12:56:11;3.80;;;1.70;;
35644;SDS011;21764;52.042;6.830;2022-07-18T13:01:11;5.38;;;1.88;;
35644;SDS011;21764;52.042;6.830;2022-07-18T13:06:12;10.77;;;1.90;;
35644;SDS011;21764;52.042;6.830;2022-07-18T13:11:14;3.75;;;1.75;;
35644;SDS011;21764;52.042;6.830;2022-07-18T13:16:14;11.68;;;1.83;;
35644;SDS011;21764;52.042;6.830;2022-07-18T13:21:15;5.13;;;1.92;;
35644;SDS011;21764;52.042;6.830;2022-07-18T13:26:18;7.90;;;2.10;;
35644;SDS011;21764;52.042;6.830;2022-07-18T13:31:18;3.90;;;1.98;;
35644;SDS011;21764;52.042;6.830;2022-07-18T13:36:19;6.75;;;2.22;;
35644;SDS011;21764;52.042;6.830;2022-07-18T13:41:20;4.00;;;1.85;;
35644;SDS011;21764;52.042;6.830;2022-07-18T13:46:21;6.57;;;1.90;;
35644;SDS011;21764;52.042;6.830;2022-07-18T13:51:21;8.40;;;2.17;;
35644;SDS011;21764;52.042;6.830;2022-07-18T13:56:22;7.28;;;1.65;;
35644;SDS011;21764;52.042;6.830;2022-07-18T14:01:23;5.07;;;2.03;;
35644;SDS011;21764;52.042;6.830;2022-07-18T14:06:24;6.32;;;1.50;;
35644;SDS011;21764;52.042;6.830;2022-07-18T14:11:24;8.75;;;1.77;;
35644;SDS011;21764;52.042;6.830;2022-07-18T14:16:25;4.18;;;1.90;;
35644;SDS011;21764;52.042;6.830;2022-07-18T14:21:26;7.57;;;1.58;;
35644;SDS011;21764;52.042;6.830;2022-07-18T14:26:27;2.92;;;1.58;;
35644;SDS011;21764;52.042;6.830;2022-07-18T14:31:27;10.25;;;1.80;;
35644;SDS011;21764;52.042;6.830;2022-07-18T14:36:28;4.35;;;2.10;;
35644;SDS011;21764;52.042;6.830;2022-07-18T14:41:30;8.48;;;1.95;;
35644;SDS011;21764;52.042;6.830;2022-07-18T14:46:31;8.07;;;2.08;;
35644;SDS011;21764;52.042;6.830;2022-07-18T14:51:32;4.05;;;2.10;;
35644;SDS011;21764;52.042;6.830;2022-07-18T14:56:33;2.45;;;1.50;;
35644;SDS011;21764;52.042;6.830;2022-07-18T15:01:33;5.78;;;2.05;;
35644;SDS011;21764;52.042;6.830;2022-07-18T15:06:34;3.13;;;1.65;;
35644;SDS011;21764;52.042;6.830;2022-07-18T15:11:35;4.90;;;1.67;;
35644;SDS011;21764;52.042;6.830;2022-07-18T15:16:36;8.93;;;1.73;;
35644;SDS011;21764;52.042;6.830;2022-07-18T15:21:36;5.47;;;1.77;;
35644;SDS011;21764;52.042;6.830;2022-07-18T15:26:37;6.30;;;1.85;;
35644;SDS011;21764;52.042;6.830;2022-07-18T15:31:39;9.23;;;1.50;;
35644;SDS011;21764;52.042;6.830;2022-07-18T15:36:40;6.55;;;1.48;;
35644;SDS011;21764;52.042;6.830;2022-07-18T15:41:41;7.38;;;1.70;;
35644;SDS011;21764;52.042;6.830;2022-07-18T15:46:42;7.30;;;1.80;;
35644;SDS011;21764;52.042;6.830;2022-07-18T15:51:42;6.38;;;1.77;;
35644;SDS011;21764;52.042;6.830;2022-07-18T15:56:46;6.93;;;2.50;;
35644;SDS011;21764;52.042;6.830;2022-07-18T16:01:47;17.10;;;2.30;;
35644;SDS011;21764;52.042;6.830;2022-07-18T16:06:47;4.93;;;1.80;;
35644;SDS011;21764;52.042;6.830;2022-07-18T16:11:48;5.72;;;1.42;;
35644;SDS011;21764;52.042;6.830;2022-07-18T16:16:49;6.00;;;1.58;;
35644;SDS011;21764;52.042;6.830;2022-07-18T16:21:50;6.13;;;1.70;;
35644;SDS011;21764;52.042;6.830;2022-07-18T16:26:51;3.72;;;1.90;;
35644;SDS011;21764;52.042;6.830;2022-07-18T16:31:52;7.18;;;1.60;;
35644;SDS011;21764;52.042;6.830;2022-07-18T16:36:53;7.65;;;2.33;;
35644;SDS011;21764;52.042;6.830;2022-07-18T16:41:53;7.55;;;1.75;;
35644;SDS011;21764;52.042;6.830;2022-07-18T16:46:54;4.20;;;1.38;;
35644;SDS011;21764;52.042;6.830;2022-07-18T16:51:55;4.47;;;1.35;;
35644;SDS011;21764;52.042;6.830;2022-07-18T16:56:58;4.82;;;1.75;;
35644;SDS011;21764;52.042;6.830;2022-07-18T17:01:59;5.35;;;2.40;;
35644;SDS011;21764;52.042;6.830;2022-07-18T17:07:01;5.07;;;1.80;;
35644;SDS011;21764;52.042;6.830;2022-07-18T17:12:02;7.88;;;1.73;;
35644;SDS011;21764;52.042;6.830;2022-07-18T17:17:03;4.45;;;1.60;;
35644;SDS011;21764;52.042;6.830;2022-07-18T17:22:04;10.48;;;2.17;;
35644;SDS011;21764;52.042;6.830;2022-07-18T17:27:07;5.60;;;1.80;;
35644;SDS011;21764;52.042;6.830;2022-07-18T17:32:08;4.72;;;1.60;;
35644;SDS011;21764;52.042;6.830;2022-07-18T17:37:10;3.67;;;1.70;;
35644;SDS011;21764;52.042;6.830;2022-07-18T17:42:15;7.13;;;1.67;;
35644;SDS011;21764;52.042;6.830;2022-07-18T17:47:17;3.17;;;1.48;;
35644;SDS011;21764;52.042;6.830;2022-07-18T17:52:18;3.83;;;1.75;;
35644;SDS011;21764;52.042;6.830;2022-07-18T17:57:19;9.88;;;1.60;;
35644;SDS011;21764;52.042;6.830;2022-07-18T18:02:20;8.05;;;1.88;;
35644;SDS011;21764;52.042;6.830;2022-07-18T18:07:20;5.35;;;1.77;;
35644;SDS011;21764;52.042;6.830;2022-07-18T18:12:21;4.03;;;1.80;;
35644;SDS011;21764;52.042;6.830;2022-07-18T18:17:22;10.13;;;1.73;;
35644;SDS011;21764;52.042;6.830;2022-07-18T18:22:22;8.18;;;2.00;;
35644;SDS011;21764;52.042;6.830;2022-07-18T18:27:26;15.75;;;1.98;;
35644;SDS011;21764;52.042;6.830;2022-07-18T18:32:27;7.45;;;2.00;;
35644;SDS011;21764;52.042;6.830;2022-07-18T18:37:27;6.70;;;2.05;;
35644;SDS011;21764;52.042;6.830;2022-07-18T18:42:28;9.00;;;2.38;;
35644;SDS011;21764;52.042;6.830;2022-07-18T18:47:29;7.53;;;1.95;;
35644;SDS011;21764;52.042;6.830;2022-07-18T18:52:29;6.97;;;2.13;;
35644;SDS011;21764;52.042;6.830;2022-07-18T18:57:30;5.30;;;2.05;;
35644;SDS011;21764;52.042;6.830;2022-07-18T19:02:31;7.80;;;2.20;;
35644;SDS011;21764;52.042;6.830;2022-07-18T19:07:31;4.15;;;2.53;;
35644;SDS011;21764;52.042;6.830;2022-07-18T19:12:32;7.13;;;2.60;;
35644;SDS011;21764;52.042;6.830;2022-07-18T19:17:33;9.48;;;2.92;;
35644;SDS011;21764;52.042;6.830;2022-07-18T19:22:34;9.70;;;2.63;;
35644;SDS011;21764;52.042;6.830;2022-07-18T19:27:34;9.88;;;2.45;;
35644;SDS011;21764;52.042;6.830;2022-07-18T19:32:35;12.27;;;3.45;;
35644;SDS011;21764;52.042;6.830;2022-07-18T19:37:36;8.77;;;2.50;;
35644;SDS011;21764;52.042;6.830;2022-07-18T19:42:36;6.30;;;2.55;;
35644;SDS011;21764;52.042;6.830;2022-07-18T19:47:37;12.38;;;3.00;;
35644;SDS011;21764;52.042;6.830;2022-07-18T19:52:39;7.78;;;3.38;;
35644;SDS011;21764;52.042;6.830;2022-07-18T19:57:40;13.18;;;2.95;;
35644;SDS011;21764;52.042;6.830;2022-07-18T20:02:41;6.30;;;2.75;;
35644;SDS011;21764;52.042;6.830;2022-07-18T20:07:41;8.18;;;2.80;;
35644;SDS011;21764;52.042;6.830;2022-07-18T20:12:42;17.10;;;3.05;;
35644;SDS011;21764;52.042;6.830;2022-07-18T20:17:43;8.55;;;2.55;;
35644;SDS011;21764;52.042;6.830;2022-07-18T20:22:43;16.25;;;2.95;;
35644;SDS011;21764;52.042;6.830;2022-07-18T20:27:44;6.35;;;2.70;;
35644;SDS011;21764;52.042;6.830;2022-07-18T20:32:46;10.05;;;3.63;;
35644;SDS011;21764;52.042;6.830;2022-07-18T20:37:47;9.02;;;3.17;;
35644;SDS011;21764;52.042;6.830;2022-07-18T20:42:48;8.05;;;3.75;;
35644;SDS011;21764;52.042;6.830;2022-07-18T20:47:51;9.15;;;2.60;;
35644;SDS011;21764;52.042;6.830;2022-07-18T20:52:52;7.07;;;3.53;;
35644;SDS011;21764;52.042;6.830;2022-07-18T20:57:54;11.38;;;3.10;;
35644;SDS011;21764;52.042;6.830;2022-07-18T21:02:54;9.27;;;3.45;;
35644;SDS011;21764;52.042;6.830;2022-07-18T21:07:55;9.48;;;3.55;;
35644;SDS011;21764;52.042;6.830;2022-07-18T21:12:56;13.57;;;3.40;;
35644;SDS011;21764;52.042;6.830;2022-07-18T21:17:58;11.98;;;3.70;;
35644;SDS011;21764;52.042;6.830;2022-07-18T21:22:59;14.77;;;3.80;;
35644;SDS011;21764;52.042;6.830;2022-07-18T21:27:59;8.90;;;3.88;;
35644;SDS011;21764;52.042;6.830;2022-07-18T21:33:00;9.73;;;3.92;;
35644;SDS011;21764;52.042;6.830;2022-07-18T21:38:01;16.48;;;3.58;;
35644;SDS011;21764;52.042;6.830;2022-07-18T21:43:02;7.50;;;3.70;;
35644;SDS011;21764;52.042;6.830;2022-07-18T21:48:03;10.82;;;3.60;;
35644;SDS011;21764;52.042;6.830;2022-07-18T21:53:04;15.73;;;3.35;;
35644;SDS011;21764;52.042;6.830;2022-07-18T21:58:05;17.65;;;3.63;;
35644;SDS011;21764;52.042;6.830;2022-07-18T22:03:06;13.93;;;3.47;;
35644;SDS011;21764;52.042;6.830;2022-07-18T22:08:06;7.70;;;3.75;;
35644;SDS011;21764;52.042;6.830;2022-07-18T22:13:07;11.70;;;4.05;;
35644;SDS011;21764;52.042;6.830;2022-07-18T22:18:08;8.82;;;3.80;;
35644;SDS011;21764;52.042;6.830;2022-07-18T22:23:11;14.15;;;4.55;;
35644;SDS011;21764;52.042;6.830;2022-07-18T22:28:11;12.10;;;4.32;;
35644;SDS011;21764;52.042;6.830;2022-07-18T22:33:12;8.30;;;4.68;;
35644;SDS011;21764;52.042;6.830;2022-07-18T22:38:13;12.25;;;6.10;;
35644;SDS011;21764;52.042;6.830;2022-07-18T22:43:13;12.90;;;6.55;;
35644;SDS011;21764;52.042;6.830;2022-07-18T22:48:14;7.97;;;5.10;;
35644;SDS011;21764;52.042;6.830;2022-07-18T22:53:15;17.92;;;4.63;;
35644;SDS011;21764;52.042;6.830;2022-07-18T22:58:17;9.70;;;4.53;;
35644;SDS011;21764;52.042;6.830;2022-07-18T23:03:18;8.30;;;3.75;;
35644;SDS011;21764;52.042;6.830;2022-07-18T23:08:18;6.45;;;3.88;;
35644;SDS011;21764;52.042;6.830;2022-07-18T23:13:19;13.10;;;4.10;;
35644;SDS011;21764;52.042;6.830;2022-07-18T23:18:20;14.50;;;3.85;;
35644;SDS011;21764;52.042;6.830;2022-07-18T23:23:20;9.35;;;3.97;;
35644;SDS011;21764;52.042;6.830;2022-07-18T23:28:21;6.95;;;4.03;;
35644;SDS011;21764;52.042;6.830;2022-07-18T23:33:22;10.18;;;4.88;;
35644;SDS011;21764;52.042;6.830;2022-07-18T23:38:22;7.30;;;4.07;;
35644;SDS011;21764;52.042;6.830;2022-07-18T23:43:23;10.00;;;3.92;;
35644;SDS011;21764;52.042;6.830;2022-07-18T23:48:24;8.65;;;3.83;;
35644;SDS011;21764;52.042;6.830;2022-07-18T23:53:24;7.43;;;4.22;;
35644;SDS011;21764;52.042;6.830;2022-07-18T23:58:25;10.00;;;3.95;;
